Time;durP1;ratioP1;P1;durP2;ratioP2;P2;SDS_P1;SDS_P2;PMS_P1;PMS_P2;Temp;Humidity;BMP_temperature;BMP_pressure;BME280_temperature;BME280_humidity;BME280_pressure;Samples;Min_cycle;Max_cycle;Signal;HPM_P1;HPM_P2
2022/08/05 00:02:10;;;;;;;6.82;2.90;;;;;;;;;;5065011;28;20140;-59
2022/08/05 00:04:36;;;;;;;4.10;2.28;;;;;;;;;;5064320;28;20044;-61
2022/08/05 00:07:02;;;;;;;3.45;2.50;;;;;;;;;;5074050;28;20021;-60
2022/08/05 00:09:29;;;;;;;5.10;2.53;;;;;;;;;;5069277;28;20111;-60
2022/08/05 00:11:55;;;;;;;4.32;2.80;;;;;;;;;;5062595;28;20374;-59
2022/08/05 00:14:21;;;;;;;6.15;2.45;;;;;;;;;;5074334;28;20047;-60
2022/08/05 00:16:47;;;;;;;2.85;2.00;;;;;;;;;;5075396;28;20041;-59
2022/08/05 00:19:13;;;;;;;4.63;2.60;;;;;;;;;;5066851;28;20074;-59
2022/08/05 00:21:39;;;;;;;4.30;2.20;;;;;;;;;;5064784;28;20040;-60
2022/08/05 00:24:05;;;;;;;4.35;2.40;;;;;;;;;;5070369;28;20028;-60
2022/08/05 00:26:31;;;;;;;5.60;2.05;;;;;;;;;;5072742;28;20085;-60
2022/08/05 00:28:57;;;;;;;6.22;3.17;;;;;;;;;;5070479;28;20099;-60
2022/08/05 00:31:23;;;;;;;4.13;2.67;;;;;;;;;;5060177;28;20036;-60
2022/08/05 00:33:49;;;;;;;2.97;2.42;;;;;;;;;;5073968;28;20032;-59
2022/08/05 00:36:15;;;;;;;4.50;2.38;;;;;;;;;;5073660;28;20515;-59
2022/08/05 00:38:41;;;;;;;4.38;2.47;;;;;;;;;;5064452;28;20032;-59
2022/08/05 00:41:07;;;;;;;8.57;2.92;;;;;;;;;;5063551;28;20241;-59
2022/08/05 00:43:34;;;;;;;5.30;2.42;;;;;;;;;;5073534;28;20086;-59
2022/08/05 00:46:00;;;;;;;7.28;2.47;;;;;;;;;;5074123;28;20548;-59
2022/08/05 00:48:26;;;;;;;7.25;2.90;;;;;;;;;;5072953;28;20033;-60
2022/08/05 00:50:52;;;;;;;4.57;2.80;;;;;;;;;;5065601;28;20025;-59
2022/08/05 00:53:20;;;;;;;3.35;2.50;;;;;;;;;;5059950;28;20392;-60
2022/08/05 00:55:46;;;;;;;6.72;2.72;;;;;;;;;;5072279;28;20075;-59
2022/08/05 00:58:13;;;;;;;4.00;2.90;;;;;;;;;;5071524;28;20036;-59
2022/08/05 01:00:39;;;;;;;7.97;3.30;;;;;;;;;;5064634;28;20033;-62
2022/08/05 01:03:05;;;;;;;4.95;3.45;;;;;;;;;;5069287;28;20548;-62
2022/08/05 01:05:31;;;;;;;7.95;3.33;;;;;;;;;;5072777;28;20107;-61
2022/08/05 01:07:57;;;;;;;5.60;3.13;;;;;;;;;;5071951;28;20396;-62
2022/08/05 01:10:27;;;;;;;5.15;3.67;;;;;;;;;;5069411;28;20028;-62
2022/08/05 01:12:55;;;;;;;4.65;3.65;;;;;;;;;;5070944;28;20099;-62
2022/08/05 01:15:25;;;;;;;8.63;3.83;;;;;;;;;;5071497;28;20028;-62
2022/08/05 01:17:55;;;;;;;5.30;3.75;;;;;;;;;;5067019;28;20025;-62
2022/08/05 01:20:29;;;;;;;7.82;3.80;;;;;;;;;;5070742;28;20032;-62
2022/08/05 01:23:13;;;;;;;10.57;3.40;;;;;;;;;;5070749;28;20542;-62
2022/08/05 01:25:39;;;;;;;;;;;;;;;;;;5065334;28;20033;-62
2022/08/05 01:28:21;;;;;;;6.28;3.58;;;;;;;;;;5072382;28;19963;-62
2022/08/05 01:30:56;;;;;;;4.97;3.97;;;;;;;;;;5070376;28;20496;-62
2022/08/05 01:33:24;;;;;;;7.55;3.80;;;;;;;;;;5071136;28;20108;-62
2022/08/05 01:35:51;;;;;;;6.72;3.72;;;;;;;;;;5070036;28;20043;-62
2022/08/05 01:38:18;;;;;;;8.63;3.67;;;;;;;;;;5068266;28;20047;-60
2022/08/05 01:40:45;;;;;;;7.18;4.10;;;;;;;;;;5067157;28;20056;-62
2022/08/05 01:43:12;;;;;;;7.22;3.50;;;;;;;;;;5068286;28;20515;-63
2022/08/05 01:45:38;;;;;;;7.40;3.97;;;;;;;;;;5065773;28;20348;-62
2022/08/05 01:48:05;;;;;;;7.50;4.10;;;;;;;;;;5072508;28;20032;-62
2022/08/05 01:50:34;;;;;;;6.38;3.63;;;;;;;;;;5069106;28;20038;-63
2022/08/05 01:53:02;;;;;;;5.20;3.60;;;;;;;;;;5055571;28;20028;-62
2022/08/05 01:55:30;;;;;;;5.72;3.92;;;;;;;;;;5060610;28;20064;-62
2022/08/05 01:57:57;;;;;;;8.35;3.25;;;;;;;;;;5067762;28;20610;-62
2022/08/05 02:00:23;;;;;;;7.53;3.45;;;;;;;;;;5061336;28;20419;-63
2022/08/05 02:02:54;;;;;;;5.53;3.67;;;;;;;;;;5054932;28;20078;-62
2022/08/05 02:05:22;;;;;;;3.67;3.38;;;;;;;;;;5067421;28;20542;-62
2022/08/05 02:07:48;;;;;;;6.70;3.90;;;;;;;;;;5072876;28;20391;-63
2022/08/05 02:10:14;;;;;;;5.82;3.60;;;;;;;;;;5077665;28;20365;-62
2022/08/05 02:12:43;;;;;;;6.30;3.40;;;;;;;;;;5063604;28;20094;-62
2022/08/05 02:15:21;;;;;;;6.18;3.17;;;;;;;;;;5071929;28;20036;-62
2022/08/05 02:17:52;;;;;;;4.38;3.60;;;;;;;;;;5070380;28;20376;-62
2022/08/05 02:20:22;;;;;;;7.13;3.58;;;;;;;;;;5064577;28;20057;-62
2022/08/05 02:22:56;;;;;;;5.35;3.58;;;;;;;;;;5067431;28;20024;-62
2022/08/05 02:25:24;;;;;;;6.82;4.13;;;;;;;;;;5062918;28;20489;-62
2022/08/05 02:27:50;;;;;;;6.28;3.80;;;;;;;;;;5062993;28;20034;-63
2022/08/05 02:30:17;;;;;;;7.53;3.90;;;;;;;;;;5057317;28;20492;-62
2022/08/05 02:32:45;;;;;;;5.72;3.95;;;;;;;;;;5066273;28;20033;-62
2022/08/05 02:35:13;;;;;;;5.40;3.53;;;;;;;;;;5068518;28;20033;-63
2022/08/05 02:37:40;;;;;;;7.70;4.13;;;;;;;;;;5066469;28;20472;-62
2022/08/05 02:40:07;;;;;;;8.90;4.15;;;;;;;;;;5074568;28;20032;-62
2022/08/05 02:42:33;;;;;;;7.68;3.92;;;;;;;;;;5069948;28;20036;-62
2022/08/05 02:45:00;;;;;;;5.88;3.40;;;;;;;;;;5058869;28;20036;-62
2022/08/05 02:47:27;;;;;;;9.75;3.70;;;;;;;;;;5071529;28;20384;-62
2022/08/05 02:49:53;;;;;;;6.40;3.92;;;;;;;;;;5060482;28;20025;-62
2022/08/05 02:52:19;;;;;;;4.65;3.80;;;;;;;;;;5065837;28;20119;-62
2022/08/05 02:54:46;;;;;;;4.85;4.03;;;;;;;;;;5063453;28;20053;-62
2022/08/05 02:57:15;;;;;;;5.68;4.18;;;;;;;;;;5068482;28;20025;-62
2022/08/05 02:59:42;;;;;;;6.35;4.28;;;;;;;;;;5067865;28;20020;-62
2022/08/05 03:02:09;;;;;;;8.32;4.47;;;;;;;;;;5068741;28;20811;-62
2022/08/05 03:04:35;;;;;;;9.23;3.78;;;;;;;;;;5065178;28;20099;-62
2022/08/05 03:07:01;;;;;;;4.95;3.42;;;;;;;;;;5063736;28;20081;-61
2022/08/05 03:09:27;;;;;;;4.65;3.42;;;;;;;;;;5066525;28;20522;-60
2022/08/05 03:11:53;;;;;;;4.75;3.78;;;;;;;;;;5075486;28;20465;-62
2022/08/05 03:14:19;;;;;;;10.48;4.00;;;;;;;;;;5067316;28;20021;-62
2022/08/05 03:16:45;;;;;;;6.40;4.00;;;;;;;;;;5058610;28;20036;-62
2022/08/05 03:19:11;;;;;;;5.22;3.63;;;;;;;;;;5071948;28;20107;-62
2022/08/05 03:21:37;;;;;;;6.88;4.15;;;;;;;;;;5070712;28;20202;-62
2022/08/05 03:24:04;;;;;;;6.15;3.60;;;;;;;;;;5060080;28;20028;-62
2022/08/05 03:26:30;;;;;;;6.68;4.10;;;;;;;;;;5068146;28;20111;-62
2022/08/05 03:28:56;;;;;;;8.60;4.43;;;;;;;;;;5063224;28;20128;-62
2022/08/05 03:31:23;;;;;;;5.70;3.50;;;;;;;;;;5070119;28;20488;-62
2022/08/05 03:33:49;;;;;;;11.75;3.55;;;;;;;;;;5062333;28;20025;-62
2022/08/05 03:36:15;;;;;;;5.72;3.65;;;;;;;;;;5070430;28;20060;-62
2022/08/05 03:38:41;;;;;;;7.72;4.10;;;;;;;;;;5068803;28;20473;-62
2022/08/05 03:41:07;;;;;;;5.32;3.67;;;;;;;;;;5063875;28;20060;-62
2022/08/05 03:43:33;;;;;;;5.55;4.18;;;;;;;;;;5055078;28;20060;-62
2022/08/05 03:46:00;;;;;;;5.45;3.92;;;;;;;;;;5063293;28;20025;-63
2022/08/05 03:48:26;;;;;;;6.45;3.65;;;;;;;;;;5070891;28;20430;-63
2022/08/05 03:50:58;;;;;;;4.13;3.20;;;;;;;;;;5070481;28;20115;-62
2022/08/05 03:53:24;;;;;;;6.55;3.30;;;;;;;;;;5070598;28;20049;-62
2022/08/05 03:55:56;;;;;;;8.02;3.63;;;;;;;;;;5056493;28;20036;-62
2022/08/05 03:58:24;;;;;;;4.38;3.33;;;;;;;;;;5070156;28;20245;-63
2022/08/05 04:00:51;;;;;;;9.40;3.63;;;;;;;;;;5067263;28;20024;-63
2022/08/05 04:03:18;;;;;;;4.00;3.20;;;;;;;;;;5052232;28;20756;-62
2022/08/05 04:05:44;;;;;;;5.28;3.80;;;;;;;;;;5065772;28;20033;-62
2022/08/05 04:08:11;;;;;;;4.63;3.30;;;;;;;;;;5070459;28;20150;-62
2022/08/05 04:10:37;;;;;;;5.93;3.72;;;;;;;;;;5066826;28;20119;-62
2022/08/05 04:13:03;;;;;;;7.38;3.80;;;;;;;;;;5069682;28;20029;-62
2022/08/05 04:15:29;;;;;;;4.97;3.45;;;;;;;;;;5064723;28;20082;-62
2022/08/05 04:17:55;;;;;;;10.18;3.75;;;;;;;;;;5070535;28;20388;-62
2022/08/05 04:20:23;;;;;;;6.50;3.75;;;;;;;;;;5060448;28;20074;-62
2022/08/05 04:22:49;;;;;;;5.60;4.00;;;;;;;;;;5067741;28;20043;-62
2022/08/05 04:25:15;;;;;;;5.55;3.25;;;;;;;;;;5068795;28;20042;-62
2022/08/05 04:27:41;;;;;;;6.45;3.83;;;;;;;;;;5067414;28;20094;-62
2022/08/05 04:30:08;;;;;;;5.55;3.88;;;;;;;;;;5065435;28;20033;-62
2022/08/05 04:32:34;;;;;;;5.53;3.80;;;;;;;;;;5066815;28;20032;-62
2022/08/05 04:35:00;;;;;;;6.40;3.20;;;;;;;;;;5061777;28;20161;-62
2022/08/05 04:37:26;;;;;;;4.93;3.65;;;;;;;;;;5070398;28;20033;-62
2022/08/05 04:39:52;;;;;;;6.45;2.95;;;;;;;;;;5068291;28;20575;-63
2022/08/05 04:42:18;;;;;;;5.78;3.13;;;;;;;;;;5070939;28;20021;-62
2022/08/05 04:44:44;;;;;;;5.90;3.40;;;;;;;;;;5066247;28;20641;-62
2022/08/05 04:47:10;;;;;;;5.47;3.60;;;;;;;;;;5068148;28;20020;-62
2022/08/05 04:49:36;;;;;;;6.05;2.85;;;;;;;;;;5063470;28;20028;-62
2022/08/05 04:52:02;;;;;;;3.33;2.80;;;;;;;;;;5060178;28;20030;-62
2022/08/05 04:54:28;;;;;;;6.47;3.28;;;;;;;;;;5073760;28;20028;-62
2022/08/05 04:56:54;;;;;;;7.32;2.97;;;;;;;;;;5073447;28;20032;-62
2022/08/05 04:59:21;;;;;;;5.28;2.70;;;;;;;;;;5072637;28;20036;-63
2022/08/05 05:01:47;;;;;;;3.83;2.97;;;;;;;;;;5065690;28;20027;-62
2022/08/05 05:04:13;;;;;;;5.38;3.25;;;;;;;;;;5071625;28;20031;-62
2022/08/05 05:06:39;;;;;;;3.90;2.92;;;;;;;;;;5067773;28;20028;-62
2022/08/05 05:09:05;;;;;;;7.95;3.25;;;;;;;;;;5073426;28;20032;-63
2022/08/05 05:11:31;;;;;;;6.07;3.67;;;;;;;;;;5069160;28;20029;-62
2022/08/05 05:13:57;;;;;;;7.13;4.07;;;;;;;;;;5073453;28;20495;-62
2022/08/05 05:16:23;;;;;;;5.82;3.60;;;;;;;;;;5073200;28;20404;-62
2022/08/05 05:18:49;;;;;;;4.57;3.28;;;;;;;;;;5071682;28;20033;-62
2022/08/05 05:21:15;;;;;;;5.75;3.30;;;;;;;;;;5070943;28;20024;-62
2022/08/05 05:23:41;;;;;;;3.90;3.17;;;;;;;;;;5064027;28;20109;-62
2022/08/05 05:26:07;;;;;;;4.78;3.00;;;;;;;;;;5073302;28;20025;-62
2022/08/05 05:28:33;;;;;;;5.63;2.90;;;;;;;;;;5065560;28;20029;-62
2022/08/05 05:30:59;;;;;;;5.68;3.38;;;;;;;;;;5055583;28;20170;-63
2022/08/05 05:33:25;;;;;;;4.28;3.10;;;;;;;;;;5053204;28;20033;-62
2022/08/05 05:35:51;;;;;;;5.05;2.78;;;;;;;;;;5072868;28;20028;-62
2022/08/05 05:38:17;;;;;;;3.50;2.60;;;;;;;;;;5073609;28;20039;-62
2022/08/05 05:40:43;;;;;;;3.58;2.65;;;;;;;;;;5061386;28;20448;-62
2022/08/05 05:43:09;;;;;;;3.47;3.13;;;;;;;;;;5072834;28;20484;-63
2022/08/05 05:45:35;;;;;;;5.20;2.55;;;;;;;;;;5072874;28;20115;-62
2022/08/05 05:48:01;;;;;;;7.90;2.90;;;;;;;;;;5068527;28;20036;-62
2022/08/05 05:50:27;;;;;;;4.55;3.45;;;;;;;;;;5063391;28;20025;-62
2022/08/05 05:52:53;;;;;;;5.78;3.10;;;;;;;;;;5069529;28;20684;-63
2022/08/05 05:55:19;;;;;;;5.00;3.08;;;;;;;;;;5070805;28;20036;-62
2022/08/05 05:57:46;;;;;;;8.23;3.10;;;;;;;;;;5071351;28;20083;-62
2022/08/05 06:00:17;;;;;;;5.00;2.80;;;;;;;;;;5059750;28;20539;-62
2022/08/05 06:02:43;;;;;;;8.50;2.90;;;;;;;;;;5062848;28;20039;-62
2022/08/05 06:05:10;;;;;;;4.43;2.45;;;;;;;;;;5070561;28;20115;-62
2022/08/05 06:07:36;;;;;;;3.78;2.45;;;;;;;;;;5068539;28;20101;-63
2022/08/05 06:10:03;;;;;;;10.48;2.75;;;;;;;;;;5067920;28;20032;-63
2022/08/05 06:12:29;;;;;;;9.55;2.45;;;;;;;;;;5079477;28;20108;-62
2022/08/05 06:14:54;;;;;;;5.35;2.20;;;;;;;;;;5063983;28;20032;-62
2022/08/05 06:17:20;;;;;;;5.97;1.92;;;;;;;;;;5057535;28;20033;-62
2022/08/05 06:19:46;;;;;;;3.85;2.53;;;;;;;;;;5063486;28;20082;-62
2022/08/05 06:22:21;;;;;;;4.00;2.40;;;;;;;;;;5061811;28;20017;-63
2022/08/05 06:24:47;;;;;;;4.47;2.53;;;;;;;;;;5069963;28;20028;-63
2022/08/05 06:27:13;;;;;;;3.05;2.13;;;;;;;;;;5071882;28;20403;-63
2022/08/05 06:29:39;;;;;;;6.65;2.60;;;;;;;;;;5070217;28;20090;-62
2022/08/05 06:32:05;;;;;;;4.10;2.28;;;;;;;;;;5063775;28;20017;-62
2022/08/05 06:34:31;;;;;;;3.88;2.25;;;;;;;;;;5071847;28;20028;-62
2022/08/05 06:36:57;;;;;;;4.38;2.30;;;;;;;;;;5071471;28;20297;-62
2022/08/05 06:39:23;;;;;;;8.32;2.33;;;;;;;;;;5069114;28;20029;-62
2022/08/05 06:41:49;;;;;;;4.82;2.55;;;;;;;;;;5065372;28;20064;-62
2022/08/05 06:44:15;;;;;;;4.97;2.40;;;;;;;;;;5063575;28;20060;-63
2022/08/05 06:46:41;;;;;;;5.90;2.20;;;;;;;;;;5065859;28;20070;-62
2022/08/05 06:49:07;;;;;;;4.25;2.05;;;;;;;;;;5063558;28;20506;-62
2022/08/05 06:51:33;;;;;;;7.03;2.20;;;;;;;;;;5065441;28;20110;-62
2022/08/05 06:53:59;;;;;;;7.25;2.13;;;;;;;;;;5069235;28;20028;-62
2022/08/05 06:56:26;;;;;;;4.05;2.13;;;;;;;;;;5063223;28;20091;-62
2022/08/05 06:58:52;;;;;;;6.45;2.33;;;;;;;;;;5068980;28;20048;-63
2022/08/05 07:01:18;;;;;;;9.60;2.20;;;;;;;;;;5064787;28;20047;-61
2022/08/05 07:03:45;;;;;;;6.35;2.50;;;;;;;;;;5071509;28;20045;-63
2022/08/05 07:06:12;;;;;;;4.82;2.90;;;;;;;;;;5071351;28;20034;-62
2022/08/05 07:08:38;;;;;;;5.82;3.05;;;;;;;;;;5071204;28;20039;-63
2022/08/05 07:11:05;;;;;;;8.85;3.03;;;;;;;;;;5075386;28;20032;-63
2022/08/05 07:19:04;;;;;;;5.97;2.25;;;;;;;;;;5071539;28;20111;-63
2022/08/05 07:21:30;;;;;;;5.50;2.53;;;;;;;;;;5068443;28;20563;-62
2022/08/05 07:23:56;;;;;;;5.53;3.22;;;;;;;;;;5071231;28;20108;-62
2022/08/05 07:26:22;;;;;;;5.10;2.28;;;;;;;;;;5071181;28;20028;-61
2022/08/05 07:28:49;;;;;;;6.13;2.67;;;;;;;;;;5071151;28;20499;-62
2022/08/05 07:31:15;;;;;;;6.60;2.80;;;;;;;;;;5070639;28;20461;-62
2022/08/05 07:33:41;;;;;;;5.95;3.10;;;;;;;;;;5071079;28;20051;-62
2022/08/05 07:36:07;;;;;;;3.80;2.50;;;;;;;;;;5069693;28;20468;-62
2022/08/05 07:38:34;;;;;;;4.18;2.53;;;;;;;;;;5071038;28;20077;-62
2022/08/05 07:41:01;;;;;;;8.95;2.38;;;;;;;;;;5070608;28;20431;-62
2022/08/05 07:43:27;;;;;;;5.10;2.83;;;;;;;;;;5080399;28;20023;-63
2022/08/05 07:45:53;;;;;;;5.63;2.85;;;;;;;;;;5075872;28;20028;-63
2022/08/05 07:48:19;;;;;;;6.07;2.58;;;;;;;;;;5071556;28;20089;-63
2022/08/05 07:50:45;;;;;;;6.05;2.90;;;;;;;;;;5070173;28;20504;-62
2022/08/05 07:53:11;;;;;;;6.75;2.85;;;;;;;;;;5067317;28;20028;-63
2022/08/05 07:55:36;;;;;;;4.28;2.58;;;;;;;;;;5056243;28;20051;-63
2022/08/05 07:58:02;;;;;;;5.38;2.75;;;;;;;;;;5068258;28;20037;-63
2022/08/05 08:00:28;;;;;;;6.13;2.70;;;;;;;;;;5063337;28;20052;-63
2022/08/05 08:02:54;;;;;;;6.85;2.85;;;;;;;;;;5070250;28;20479;-63
2022/08/05 08:05:20;;;;;;;7.13;3.33;;;;;;;;;;5066070;28;20059;-63
2022/08/05 08:07:47;;;;;;;5.78;3.00;;;;;;;;;;5068377;28;20029;-64
2022/08/05 08:10:13;;;;;;;5.45;3.08;;;;;;;;;;5070964;28;20024;-63
2022/08/05 08:12:39;;;;;;;7.20;3.40;;;;;;;;;;5061631;28;20476;-64
2022/08/05 08:15:06;;;;;;;5.13;3.08;;;;;;;;;;5058960;28;20067;-62
2022/08/05 08:17:32;;;;;;;5.45;2.85;;;;;;;;;;5059777;28;20020;-63
2022/08/05 08:19:59;;;;;;;8.48;2.92;;;;;;;;;;5069811;28;20039;-64
2022/08/05 08:22:26;;;;;;;5.85;3.13;;;;;;;;;;5064349;28;20395;-64
2022/08/05 08:24:52;;;;;;;5.85;3.30;;;;;;;;;;5066567;28;20184;-64
2022/08/05 08:27:18;;;;;;;4.55;2.70;;;;;;;;;;5068470;28;20309;-64
2022/08/05 08:29:44;;;;;;;6.07;3.35;;;;;;;;;;5074021;28;20027;-63
2022/08/05 08:32:10;;;;;;;4.20;3.08;;;;;;;;;;5074206;28;20020;-63
2022/08/05 08:34:36;;;;;;;7.28;2.90;;;;;;;;;;5074517;28;20039;-63
2022/08/05 08:37:02;;;;;;;5.63;3.10;;;;;;;;;;5073873;28;20048;-63
2022/08/05 08:39:28;;;;;;;5.40;3.47;;;;;;;;;;5069258;28;20037;-64
2022/08/05 08:41:55;;;;;;;4.57;3.30;;;;;;;;;;5064209;28;20032;-63
2022/08/05 08:44:22;;;;;;;6.88;2.78;;;;;;;;;;5067006;28;20099;-63
2022/08/05 08:46:48;;;;;;;8.93;2.88;;;;;;;;;;5073928;28;20055;-63
2022/08/05 08:49:15;;;;;;;4.57;3.30;;;;;;;;;;5073514;28;20031;-63
2022/08/05 08:51:42;;;;;;;6.45;2.92;;;;;;;;;;5073794;28;20112;-63
2022/08/05 08:54:10;;;;;;;5.68;3.28;;;;;;;;;;5063308;28;20041;-63
2022/08/05 08:56:38;;;;;;;5.28;3.15;;;;;;;;;;5072945;28;20029;-64
2022/08/05 08:59:04;;;;;;;4.57;3.25;;;;;;;;;;5073443;28;20396;-63
2022/08/05 09:01:31;;;;;;;6.80;2.90;;;;;;;;;;5068586;28;20498;-63
2022/08/05 09:03:57;;;;;;;5.05;3.08;;;;;;;;;;5074495;28;20107;-63
2022/08/05 09:06:23;;;;;;;6.47;2.80;;;;;;;;;;5073806;28;20498;-63
2022/08/05 09:08:49;;;;;;;9.15;2.75;;;;;;;;;;5073443;28;20035;-63
2022/08/05 09:11:15;;;;;;;3.97;2.47;;;;;;;;;;5076813;28;20036;-63
2022/08/05 09:13:42;;;;;;;6.18;2.53;;;;;;;;;;5067301;28;20498;-63
2022/08/05 09:16:10;;;;;;;6.70;2.78;;;;;;;;;;5062853;28;20095;-63
2022/08/05 09:18:36;;;;;;;3.38;2.67;;;;;;;;;;5084980;28;20100;-63
2022/08/05 09:21:02;;;;;;;4.30;2.70;;;;;;;;;;5076811;28;20099;-63
2022/08/05 09:23:28;;;;;;;4.20;2.33;;;;;;;;;;5073825;28;20071;-63
2022/08/05 09:26:08;;;;;;;5.63;2.63;;;;;;;;;;5073433;28;20572;-63
2022/08/05 09:28:34;;;;;;;4.75;2.70;;;;;;;;;;5055197;28;20063;-63
2022/08/05 09:31:03;;;;;;;4.05;2.60;;;;;;;;;;5070937;28;20077;-63
2022/08/05 09:33:29;;;;;;;4.63;2.58;;;;;;;;;;5079135;28;20105;-63
2022/08/05 09:35:56;;;;;;;3.85;2.53;;;;;;;;;;5078523;28;20056;-63
2022/08/05 09:38:22;;;;;;;4.80;2.13;;;;;;;;;;5071777;28;20067;-63
2022/08/05 09:40:49;;;;;;;6.05;2.63;;;;;;;;;;5072686;28;20468;-63
2022/08/05 09:43:31;;;;;;;7.05;2.83;;;;;;;;;;5072407;28;20081;-63
2022/08/05 09:45:57;;;;;;;6.30;2.65;;;;;;;;;;5060932;28;20036;-62
2022/08/05 09:48:28;;;;;;;5.63;2.30;;;;;;;;;;5070390;28;20036;-63
2022/08/05 09:51:05;;;;;;;4.45;2.60;;;;;;;;;;5070106;28;20538;-63
2022/08/05 09:53:46;;;;;;;3.92;2.40;;;;;;;;;;5072929;28;20047;-63
2022/08/05 09:56:12;;;;;;;3.13;2.35;;;;;;;;;;5064274;28;20070;-62
2022/08/05 09:58:38;;;;;;;7.30;3.20;;;;;;;;;;5063001;28;20080;-63
2022/08/05 10:01:05;;;;;;;4.55;2.55;;;;;;;;;;5061561;28;20028;-63
2022/08/05 10:03:32;;;;;;;6.50;2.97;;;;;;;;;;5058602;28;20025;-63
2022/08/05 10:06:06;;;;;;;8.75;3.03;;;;;;;;;;5072420;28;20032;-63
2022/08/05 10:08:32;;;;;;;5.18;2.67;;;;;;;;;;5067253;28;20032;-63
2022/08/05 10:10:58;;;;;;;4.95;3.40;;;;;;;;;;5060504;28;20023;-63
2022/08/05 10:13:28;;;;;;;6.00;3.13;;;;;;;;;;5085618;28;20036;-63
2022/08/05 10:15:57;;;;;;;4.72;2.90;;;;;;;;;;5062382;28;20075;-63
2022/08/05 10:18:24;;;;;;;3.22;2.53;;;;;;;;;;5071139;28;20048;-63
2022/08/05 10:20:51;;;;;;;5.00;2.90;;;;;;;;;;5071553;28;20108;-63
2022/08/05 10:23:24;;;;;;;6.40;3.10;;;;;;;;;;5072109;28;20027;-63
2022/08/05 10:25:50;;;;;;;;;;;;;;;;;;5072516;28;20052;-63
2022/08/05 10:28:17;;;;;;;3.75;2.53;;;;;;;;;;5069624;28;19955;-63
2022/08/05 10:30:43;;;;;;;12.75;3.53;;;;;;;;;;5063613;28;20573;-63
2022/08/05 10:33:09;;;;;;;4.80;2.83;;;;;;;;;;5064661;28;20111;-63
2022/08/05 10:35:36;;;;;;;3.72;2.88;;;;;;;;;;5066988;28;20028;-63
2022/08/05 10:38:03;;;;;;;6.10;2.63;;;;;;;;;;5066847;28;20024;-64
2022/08/05 10:40:46;;;;;;;5.68;3.17;;;;;;;;;;5065924;28;20060;-64
2022/08/05 10:43:35;;;;;;;3.78;2.60;;;;;;;;;;5059328;28;20027;-64
2022/08/05 10:46:03;;;;;;;5.47;2.72;;;;;;;;;;5062753;28;20028;-63
2022/08/05 10:48:33;;;;;;;7.32;2.90;;;;;;;;;;5066744;28;20172;-64
2022/08/05 10:51:00;;;;;;;6.22;2.63;;;;;;;;;;5067304;28;20038;-63
2022/08/05 10:53:55;;;;;;;5.22;2.40;;;;;;;;;;5067057;28;20071;-63
2022/08/05 10:56:22;;;;;;;4.65;2.00;;;;;;;;;;5068565;28;20025;-63
2022/08/05 10:58:49;;;;;;;4.97;1.85;;;;;;;;;;5062241;28;20061;-63
2022/08/05 11:01:15;;;;;;;2.53;1.80;;;;;;;;;;5069445;28;20365;-62
2022/08/05 11:04:00;;;;;;;2.85;1.60;;;;;;;;;;5070998;28;20099;-62
2022/08/05 11:06:26;;;;;;;4.38;1.75;;;;;;;;;;5071285;28;20040;-63
2022/08/05 11:09:11;;;;;;;2.78;1.48;;;;;;;;;;5071126;28;20028;-62
2022/08/05 11:11:37;;;;;;;7.35;1.73;;;;;;;;;;5056414;28;20104;-63
2022/08/05 11:14:03;;;;;;;3.65;1.30;;;;;;;;;;5077534;28;20112;-62
2022/08/05 11:16:29;;;;;;;1.83;1.17;;;;;;;;;;5072092;28;20560;-62
2022/08/05 11:19:14;;;;;;;2.67;1.60;;;;;;;;;;5071163;28;20054;-62
2022/08/05 11:21:40;;;;;;;2.70;1.67;;;;;;;;;;5069888;28;20029;-62
2022/08/05 11:24:09;;;;;;;3.85;1.98;;;;;;;;;;5060923;28;20096;-62
2022/08/05 11:26:35;;;;;;;1.95;1.23;;;;;;;;;;5070864;28;20039;-62
2022/08/05 11:29:02;;;;;;;3.83;1.50;;;;;;;;;;5071313;28;20442;-62
2022/08/05 11:31:32;;;;;;;2.53;1.90;;;;;;;;;;5065999;28;20488;-62
2022/08/05 11:34:00;;;;;;;5.80;1.80;;;;;;;;;;5067932;28;20032;-62
2022/08/05 11:36:46;;;;;;;3.50;1.60;;;;;;;;;;5070603;28;20028;-62
2022/08/05 11:39:12;;;;;;;4.97;1.80;;;;;;;;;;5058581;28;20167;-62
2022/08/05 11:41:39;;;;;;;2.50;1.65;;;;;;;;;;5063596;28;20032;-62
2022/08/05 11:44:06;;;;;;;3.53;1.45;;;;;;;;;;5064898;28;20021;-63
2022/08/05 11:46:32;;;;;;;2.30;1.70;;;;;;;;;;5070971;28;20392;-62
2022/08/05 11:48:58;;;;;;;4.15;1.55;;;;;;;;;;5070469;28;20037;-62
2022/08/05 11:51:25;;;;;;;3.60;1.38;;;;;;;;;;5072006;28;20051;-61
2022/08/05 11:53:52;;;;;;;6.18;1.63;;;;;;;;;;5073760;28;20152;-62
2022/08/05 11:56:18;;;;;;;4.65;1.77;;;;;;;;;;5068708;28;20122;-62
2022/08/05 11:58:45;;;;;;;2.83;1.23;;;;;;;;;;5076653;28;20518;-62
2022/08/05 12:01:13;;;;;;;3.47;1.38;;;;;;;;;;5070933;28;20036;-62
2022/08/05 12:03:42;;;;;;;2.95;1.48;;;;;;;;;;5074579;28;20031;-62
2022/08/05 12:06:08;;;;;;;7.65;1.23;;;;;;;;;;5071464;28;20043;-61
2022/08/05 12:08:39;;;;;;;2.22;1.35;;;;;;;;;;5054373;28;20043;-61
2022/08/05 12:11:07;;;;;;;1.60;1.33;;;;;;;;;;5051803;28;20039;-61
2022/08/05 12:13:33;;;;;;;1.60;1.13;;;;;;;;;;5050588;28;20039;-61
2022/08/05 12:15:59;;;;;;;2.78;1.38;;;;;;;;;;5049113;28;20043;-61
2022/08/05 12:18:32;;;;;;;2.17;1.20;;;;;;;;;;5064760;28;20032;-61
2022/08/05 12:21:09;;;;;;;4.18;1.58;;;;;;;;;;5066904;28;20029;-60
2022/08/05 12:23:35;;;;;;;2.45;1.17;;;;;;;;;;5055325;28;20033;-61
2022/08/05 12:26:01;;;;;;;4.63;1.30;;;;;;;;;;5063788;28;20032;-61
2022/08/05 12:28:31;;;;;;;3.10;1.30;;;;;;;;;;5069260;28;20063;-61
2022/08/05 12:30:57;;;;;;;2.83;1.27;;;;;;;;;;5071250;28;20020;-61
2022/08/05 12:33:23;;;;;;;2.85;1.20;;;;;;;;;;5072737;28;20060;-60
2022/08/05 12:35:49;;;;;;;2.20;1.10;;;;;;;;;;5072819;28;20488;-62
2022/08/05 12:38:15;;;;;;;2.75;1.17;;;;;;;;;;5073043;28;20549;-62
2022/08/05 12:40:41;;;;;;;4.57;1.33;;;;;;;;;;5067024;28;20024;-61
2022/08/05 12:43:07;;;;;;;3.20;1.42;;;;;;;;;;5057457;28;20107;-62
2022/08/05 12:45:33;;;;;;;3.40;1.98;;;;;;;;;;5063001;28;20032;-62
2022/08/05 12:48:13;;;;;;;1.83;1.05;;;;;;;;;;5066716;28;20025;-62
2022/08/05 12:50:39;;;;;;;2.05;1.08;;;;;;;;;;5071024;28;20040;-61
2022/08/05 12:53:05;;;;;;;3.08;1.23;;;;;;;;;;5066595;28;20514;-62
2022/08/05 12:55:31;;;;;;;1.70;1.00;;;;;;;;;;5074544;28;20024;-61
2022/08/05 12:57:58;;;;;;;2.67;1.17;;;;;;;;;;5070257;28;20032;-61
2022/08/05 13:00:32;;;;;;;2.65;1.10;;;;;;;;;;5069329;28;20035;-61
2022/08/05 13:02:58;;;;;;;3.45;1.10;;;;;;;;;;5072731;28;20682;-62
2022/08/05 13:05:25;;;;;;;5.88;1.33;;;;;;;;;;5068446;28;20278;-62
2022/08/05 13:07:51;;;;;;;4.30;1.30;;;;;;;;;;5073832;28;20468;-62
2022/08/05 13:10:17;;;;;;;2.83;1.38;;;;;;;;;;5069013;28;20071;-61
2022/08/05 13:12:44;;;;;;;1.88;1.20;;;;;;;;;;5057006;28;20090;-61
2022/08/05 13:15:11;;;;;;;5.70;1.40;;;;;;;;;;5077458;28;20093;-61
2022/08/05 13:17:37;;;;;;;4.00;1.50;;;;;;;;;;5076694;28;20073;-62
2022/08/05 13:20:05;;;;;;;2.15;1.40;;;;;;;;;;5073505;28;20111;-61
2022/08/05 13:22:32;;;;;;;5.53;1.23;;;;;;;;;;5050654;28;20032;-61
2022/08/05 13:24:59;;;;;;;2.40;1.05;;;;;;;;;;5068346;28;20036;-62
2022/08/05 13:27:25;;;;;;;5.65;1.40;;;;;;;;;;5074541;28;20020;-61
2022/08/05 13:29:51;;;;;;;1.95;1.30;;;;;;;;;;5064265;28;20032;-62
2022/08/05 13:32:17;;;;;;;1.73;1.13;;;;;;;;;;5067499;28;20036;-61
2022/08/05 13:34:43;;;;;;;3.67;1.40;;;;;;;;;;5065842;28;20090;-61
2022/08/05 13:37:09;;;;;;;2.90;1.38;;;;;;;;;;5072583;28;20033;-62
2022/08/05 13:39:35;;;;;;;2.83;1.20;;;;;;;;;;5072820;28;20024;-62
2022/08/05 13:42:01;;;;;;;2.60;1.70;;;;;;;;;;5066795;28;20024;-61
2022/08/05 13:44:27;;;;;;;4.72;1.17;;;;;;;;;;5052581;28;20029;-62
2022/08/05 13:46:53;;;;;;;2.25;1.42;;;;;;;;;;5068569;28;20032;-62
2022/08/05 13:49:19;;;;;;;6.45;1.50;;;;;;;;;;5060852;28;20035;-61
2022/08/05 13:51:45;;;;;;;5.55;1.30;;;;;;;;;;5067018;28;20028;-62
2022/08/05 13:54:11;;;;;;;3.67;1.75;;;;;;;;;;5074005;28;20025;-62
2022/08/05 13:56:37;;;;;;;4.00;1.50;;;;;;;;;;5063019;28;20120;-62
2022/08/05 13:59:03;;;;;;;2.25;1.50;;;;;;;;;;5067010;28;20056;-61
2022/08/05 14:01:29;;;;;;;2.90;1.70;;;;;;;;;;5071534;28;20032;-61
2022/08/05 14:06:40;;;;;;;4.38;1.65;;;;;;;;;;5069798;28;20050;-62
2022/08/05 14:09:06;;;;;;;2.63;1.67;;;;;;;;;;5057968;28;20036;-62
2022/08/05 14:11:32;;;;;;;7.65;1.77;;;;;;;;;;5064910;28;20032;-61
2022/08/05 14:13:58;;;;;;;2.53;1.50;;;;;;;;;;5074153;28;20489;-61
2022/08/05 14:16:24;;;;;;;2.90;1.50;;;;;;;;;;5058434;28;20064;-61
2022/08/05 14:18:50;;;;;;;4.70;1.42;;;;;;;;;;5061655;28;20021;-61
2022/08/05 14:21:16;;;;;;;3.60;1.73;;;;;;;;;;5059104;28;20115;-61
2022/08/05 14:23:42;;;;;;;3.58;1.70;;;;;;;;;;5068670;28;20115;-54
2022/08/05 14:26:08;;;;;;;2.70;1.52;;;;;;;;;;5071679;28;20468;-55
2022/08/05 14:28:34;;;;;;;2.28;1.50;;;;;;;;;;5068246;28;20495;-55
2022/08/05 14:31:00;;;;;;;2.97;1.75;;;;;;;;;;5068745;28;20033;-55
2022/08/05 14:33:26;;;;;;;5.13;2.20;;;;;;;;;;5069112;28;20030;-54
2022/08/05 14:35:52;;;;;;;3.65;1.70;;;;;;;;;;5066429;28;20028;-54
2022/08/05 14:38:18;;;;;;;3.67;1.65;;;;;;;;;;5068364;28;20025;-52
2022/08/05 14:40:44;;;;;;;7.13;2.80;;;;;;;;;;5074428;28;20095;-55
2022/08/05 14:43:10;;;;;;;5.40;2.15;;;;;;;;;;5063004;28;20100;-55
2022/08/05 14:45:36;;;;;;;4.35;2.10;;;;;;;;;;5067449;28;20059;-53
2022/08/05 14:48:03;;;;;;;7.00;2.10;;;;;;;;;;5066594;28;20040;-54
2022/08/05 14:50:29;;;;;;;7.45;2.10;;;;;;;;;;5064146;28;20491;-54
2022/08/05 14:52:54;;;;;;;3.17;1.88;;;;;;;;;;5061144;28;20028;-53